sensor_id;sensor_type;location;lat;lon;timestamp;pressure;altitude;pressure_sealevel;temperature;humidity
68456;BME280;55437;55.046;38.838;2023-10-09T00:00:34;97257.63;;;5.27;70.59
68456;BME280;55437;55.046;38.838;2023-10-09T00:03:04;97269.53;;;5.27;70.24
68456;BME280;55437;55.046;38.838;2023-10-09T00:05:32;97270.28;;;5.29;70.51
68456;BME280;55437;55.046;38.838;2023-10-09T00:08:14;97281.19;;;5.31;70.25
68456;BME280;55437;55.046;38.838;2023-10-09T00:10:48;97281.63;;;5.39;70.17
68456;BME280;55437;55.046;38.838;2023-10-09T00:13:25;97283.47;;;5.35;70.00
68456;BME280;55437;55.046;38.838;2023-10-09T00:15:54;97290.44;;;5.32;70.08
68456;BME280;55437;55.046;38.838;2023-10-09T00:18:25;97294.22;;;5.25;70.45
68456;BME280;55437;55.046;38.838;2023-10-09T00:20:58;97292.41;;;5.27;70.33
68456;BME280;55437;55.046;38.838;2023-10-09T00:23:38;97301.03;;;5.24;70.62
68456;BME280;55437;55.046;38.838;2023-10-09T00:26:04;97305.97;;;5.27;70.51
68456;BME280;55437;55.046;38.838;2023-10-09T00:28:47;97311.88;;;5.28;70.51
68456;BME280;55437;55.046;38.838;2023-10-09T00:31:14;97312.09;;;5.23;70.67
68456;BME280;55437;55.046;38.838;2023-10-09T00:33:52;97309.69;;;5.20;70.53
68456;BME280;55437;55.046;38.838;2023-10-09T00:36:18;97315.94;;;5.15;70.68
68456;BME280;55437;55.046;38.838;2023-10-09T00:39:18;97326.25;;;5.12;71.02
68456;BME280;55437;55.046;38.838;2023-10-09T00:41:59;97325.50;;;5.10;71.20
68456;BME280;55437;55.046;38.838;2023-10-09T00:44:27;97328.66;;;5.15;70.89
68456;BME280;55437;55.046;38.838;2023-10-09T00:47:08;97346.47;;;5.15;70.88
68456;BME280;55437;55.046;38.838;2023-10-09T00:49:54;97345.72;;;5.13;70.99
68456;BME280;55437;55.046;38.838;2023-10-09T00:52:34;97346.59;;;5.12;70.96
68456;BME280;55437;55.046;38.838;2023-10-09T00:55:18;97339.50;;;5.18;70.75
68456;BME280;55437;55.046;38.838;2023-10-09T00:57:51;97347.97;;;5.19;70.54
68456;BME280;55437;55.046;38.838;2023-10-09T01:00:26;97352.06;;;5.21;70.42
68456;BME280;55437;55.046;38.838;2023-10-09T01:03:00;97363.59;;;5.28;70.65
68456;BME280;55437;55.046;38.838;2023-10-09T01:05:49;97366.06;;;5.30;70.47
68456;BME280;55437;55.046;38.838;2023-10-09T01:08:25;97366.34;;;5.24;70.43
68456;BME280;55437;55.046;38.838;2023-10-09T01:13:40;97373.41;;;5.19;70.59
68456;BME280;55437;55.046;38.838;2023-10-09T01:16:38;97373.09;;;5.07;71.24
68456;BME280;55437;55.046;38.838;2023-10-09T01:19:07;97381.19;;;5.16;70.94
68456;BME280;55437;55.046;38.838;2023-10-09T01:21:39;97373.53;;;5.16;71.24
68456;BME280;55437;55.046;38.838;2023-10-09T01:24:08;97387.72;;;5.20;71.01
68456;BME280;55437;55.046;38.838;2023-10-09T01:31:41;97385.38;;;5.17;70.90
68456;BME280;55437;55.046;38.838;2023-10-09T01:34:28;97393.75;;;5.19;71.04
68456;BME280;55437;55.046;38.838;2023-10-09T01:37:12;97398.38;;;5.28;70.55
68456;BME280;55437;55.046;38.838;2023-10-09T01:39:46;97401.13;;;5.23;70.66
68456;BME280;55437;55.046;38.838;2023-10-09T01:42:39;97407.44;;;5.16;70.90
68456;BME280;55437;55.046;38.838;2023-10-09T01:45:12;97404.88;;;5.16;70.81
68456;BME280;55437;55.046;38.838;2023-10-09T01:47:40;97420.00;;;5.19;71.13
68456;BME280;55437;55.046;38.838;2023-10-09T01:50:07;97428.81;;;5.12;70.86
68456;BME280;55437;55.046;38.838;2023-10-09T01:52:48;97432.50;;;5.06;71.19
68456;BME280;55437;55.046;38.838;2023-10-09T01:55:17;97437.72;;;5.03;71.45
68456;BME280;55437;55.046;38.838;2023-10-09T01:58:07;97431.94;;;5.00;71.38
68456;BME280;55437;55.046;38.838;2023-10-09T02:00:50;97447.97;;;5.02;71.42
68456;BME280;55437;55.046;38.838;2023-10-09T02:03:23;97447.66;;;5.08;71.47
68456;BME280;55437;55.046;38.838;2023-10-09T02:05:50;97456.59;;;5.17;71.42
68456;BME280;55437;55.046;38.838;2023-10-09T02:08:25;97457.63;;;5.13;71.35
68456;BME280;55437;55.046;38.838;2023-10-09T02:10:56;97467.94;;;5.10;71.40
68456;BME280;55437;55.046;38.838;2023-10-09T02:13:23;97469.59;;;5.11;71.16
68456;BME280;55437;55.046;38.838;2023-10-09T02:15:57;97479.69;;;5.12;71.17
68456;BME280;55437;55.046;38.838;2023-10-09T02:18:39;97476.63;;;5.05;71.34
68456;BME280;55437;55.046;38.838;2023-10-09T02:21:19;97479.00;;;5.08;71.14
68456;BME280;55437;55.046;38.838;2023-10-09T02:24:00;97493.03;;;5.17;70.96
68456;BME280;55437;55.046;38.838;2023-10-09T02:26:31;97492.19;;;5.17;70.97
68456;BME280;55437;55.046;38.838;2023-10-09T02:29:25;97491.50;;;5.13;71.26
68456;BME280;55437;55.046;38.838;2023-10-09T02:31:52;97503.59;;;5.08;71.12
68456;BME280;55437;55.046;38.838;2023-10-09T02:34:18;97510.25;;;4.93;71.35
68456;BME280;55437;55.046;38.838;2023-10-09T02:36:51;97502.91;;;4.87;71.56
68456;BME280;55437;55.046;38.838;2023-10-09T02:39:24;97506.97;;;4.91;71.75
68456;BME280;55437;55.046;38.838;2023-10-09T02:41:54;97509.44;;;4.93;71.52
68456;BME280;55437;55.046;38.838;2023-10-09T02:44:56;97523.03;;;4.92;71.80
68456;BME280;55437;55.046;38.838;2023-10-09T02:47:24;97520.06;;;5.01;71.88
68456;BME280;55437;55.046;38.838;2023-10-09T02:49:55;97523.50;;;5.00;71.98
68456;BME280;55437;55.046;38.838;2023-10-09T02:52:33;97534.69;;;4.96;72.05
68456;BME280;55437;55.046;38.838;2023-10-09T02:55:07;97536.91;;;5.03;72.38
68456;BME280;55437;55.046;38.838;2023-10-09T02:57:38;97542.44;;;4.94;72.29
68456;BME280;55437;55.046;38.838;2023-10-09T03:00:34;97550.78;;;4.96;72.64
68456;BME280;55437;55.046;38.838;2023-10-09T03:03:03;97554.97;;;4.97;72.53
68456;BME280;55437;55.046;38.838;2023-10-09T03:05:32;97562.47;;;5.00;72.56
68456;BME280;55437;55.046;38.838;2023-10-09T03:07:58;97562.34;;;5.03;72.53
68456;BME280;55437;55.046;38.838;2023-10-09T03:10:25;97570.78;;;5.04;73.01
68456;BME280;55437;55.046;38.838;2023-10-09T03:12:54;97576.47;;;5.09;72.67
68456;BME280;55437;55.046;38.838;2023-10-09T03:15:22;97584.09;;;5.09;73.12
68456;BME280;55437;55.046;38.838;2023-10-09T03:17:48;97584.88;;;5.11;72.84
68456;BME280;55437;55.046;38.838;2023-10-09T03:20:15;97584.88;;;5.11;72.88
68456;BME280;55437;55.046;38.838;2023-10-09T03:23:06;97593.19;;;5.15;72.95
68456;BME280;55437;55.046;38.838;2023-10-09T03:25:35;97600.88;;;5.13;73.03
68456;BME280;55437;55.046;38.838;2023-10-09T03:28:03;97597.44;;;5.14;73.39
68456;BME280;55437;55.046;38.838;2023-10-09T03:30:29;97600.81;;;5.15;72.93
68456;BME280;55437;55.046;38.838;2023-10-09T03:32:58;97611.53;;;5.21;72.94
68456;BME280;55437;55.046;38.838;2023-10-09T03:35:26;97610.56;;;5.24;73.15
68456;BME280;55437;55.046;38.838;2023-10-09T03:37:59;97614.13;;;5.20;72.86
68456;BME280;55437;55.046;38.838;2023-10-09T03:40:46;97623.50;;;5.19;72.96
68456;BME280;55437;55.046;38.838;2023-10-09T03:43:15;97623.72;;;5.15;73.21
68456;BME280;55437;55.046;38.838;2023-10-09T03:45:42;97634.47;;;5.20;72.85
68456;BME280;55437;55.046;38.838;2023-10-09T03:48:20;97628.88;;;5.13;73.24
68456;BME280;55437;55.046;38.838;2023-10-09T03:50:52;97635.41;;;5.19;73.00
68456;BME280;55437;55.046;38.838;2023-10-09T03:53:41;97641.84;;;5.26;72.97
68456;BME280;55437;55.046;38.838;2023-10-09T03:56:08;97639.19;;;5.29;72.77
68456;BME280;55437;55.046;38.838;2023-10-09T03:58:42;97647.63;;;5.29;72.27
68456;BME280;55437;55.046;38.838;2023-10-09T04:01:14;97667.22;;;5.27;72.39
68456;BME280;55437;55.046;38.838;2023-10-09T04:04:04;97658.47;;;5.33;72.49
68456;BME280;55437;55.046;38.838;2023-10-09T04:06:32;97672.84;;;5.34;72.30
68456;BME280;55437;55.046;38.838;2023-10-09T04:09:04;97670.03;;;5.40;72.17
68456;BME280;55437;55.046;38.838;2023-10-09T04:11:49;97681.59;;;5.28;72.31
68456;BME280;55437;55.046;38.838;2023-10-09T04:14:34;97675.81;;;5.25;72.29
68456;BME280;55437;55.046;38.838;2023-10-09T04:17:00;97678.84;;;5.33;72.21
68456;BME280;55437;55.046;38.838;2023-10-09T04:19:55;97680.97;;;5.42;72.25
68456;BME280;55437;55.046;38.838;2023-10-09T04:22:40;97693.53;;;5.45;72.12
68456;BME280;55437;55.046;38.838;2023-10-09T04:25:26;97695.25;;;5.44;71.91
68456;BME280;55437;55.046;38.838;2023-10-09T04:27:54;97703.06;;;5.41;71.61
68456;BME280;55437;55.046;38.838;2023-10-09T04:30:38;97703.88;;;5.42;71.66
68456;BME280;55437;55.046;38.838;2023-10-09T04:33:34;97699.31;;;5.49;71.83
68456;BME280;55437;55.046;38.838;2023-10-09T04:36:07;97703.16;;;5.57;71.63
68456;BME280;55437;55.046;38.838;2023-10-09T04:38:46;97712.50;;;5.57;71.22
68456;BME280;55437;55.046;38.838;2023-10-09T04:41:40;97726.69;;;5.62;71.07
68456;BME280;55437;55.046;38.838;2023-10-09T04:44:09;97720.34;;;5.71;70.95
68456;BME280;55437;55.046;38.838;2023-10-09T04:46:50;97733.78;;;5.74;71.04
68456;BME280;55437;55.046;38.838;2023-10-09T04:49:37;97730.41;;;5.74;70.89
68456;BME280;55437;55.046;38.838;2023-10-09T04:52:19;97751.66;;;5.73;70.94
68456;BME280;55437;55.046;38.838;2023-10-09T04:55:07;97748.16;;;5.75;70.75
68456;BME280;55437;55.046;38.838;2023-10-09T04:57:41;97765.22;;;5.73;70.64
68456;BME280;55437;55.046;38.838;2023-10-09T05:00:13;97764.47;;;5.71;70.31
68456;BME280;55437;55.046;38.838;2023-10-09T05:03:08;97775.41;;;5.73;70.75
68456;BME280;55437;55.046;38.838;2023-10-09T05:05:52;97778.59;;;5.78;70.25
68456;BME280;55437;55.046;38.838;2023-10-09T05:08:26;97781.03;;;5.80;70.21
68456;BME280;55437;55.046;38.838;2023-10-09T05:11:14;97785.53;;;5.75;70.59
68456;BME280;55437;55.046;38.838;2023-10-09T05:14:03;97781.13;;;5.78;70.42
68456;BME280;55437;55.046;38.838;2023-10-09T05:16:39;97788.47;;;5.85;70.13
68456;BME280;55437;55.046;38.838;2023-10-09T05:19:21;97786.81;;;5.84;69.83
68456;BME280;55437;55.046;38.838;2023-10-09T05:22:10;97790.78;;;5.91;69.64
68456;BME280;55437;55.046;38.838;2023-10-09T05:24:57;97796.78;;;5.90;70.01
68456;BME280;55437;55.046;38.838;2023-10-09T05:27:23;97799.38;;;5.88;69.83
68456;BME280;55437;55.046;38.838;2023-10-09T05:30:07;97800.16;;;5.90;70.12
68456;BME280;55437;55.046;38.838;2023-10-09T05:32:55;97800.22;;;5.89;69.65
68456;BME280;55437;55.046;38.838;2023-10-09T05:35:25;97801.63;;;5.94;69.85
68456;BME280;55437;55.046;38.838;2023-10-09T05:38:07;97813.06;;;6.04;69.78
68456;BME280;55437;55.046;38.838;2023-10-09T05:40:51;97823.88;;;6.09;69.64
68456;BME280;55437;55.046;38.838;2023-10-09T05:43:21;97821.84;;;6.16;69.65
68456;BME280;55437;55.046;38.838;2023-10-09T05:46:05;97830.25;;;6.18;69.45
68456;BME280;55437;55.046;38.838;2023-10-09T05:48:36;97832.97;;;6.15;69.09
68456;BME280;55437;55.046;38.838;2023-10-09T05:51:04;97836.41;;;6.14;69.06
68456;BME280;55437;55.046;38.838;2023-10-09T05:54:03;97852.44;;;6.16;69.33
68456;BME280;55437;55.046;38.838;2023-10-09T05:56:58;97855.53;;;6.04;68.80
68456;BME280;55437;55.046;38.838;2023-10-09T05:59:43;97862.00;;;6.11;68.89
68456;BME280;55437;55.046;38.838;2023-10-09T06:02:37;97862.09;;;6.09;68.70
68456;BME280;55437;55.046;38.838;2023-10-09T06:05:22;97869.38;;;6.17;68.26
68456;BME280;55437;55.046;38.838;2023-10-09T06:08:08;97869.31;;;6.19;68.30
68456;BME280;55437;55.046;38.838;2023-10-09T06:10:38;97880.94;;;6.24;68.23
68456;BME280;55437;55.046;38.838;2023-10-09T06:13:08;97877.50;;;6.25;68.19
68456;BME280;55437;55.046;38.838;2023-10-09T06:15:52;97879.56;;;6.36;68.03
68456;BME280;55437;55.046;38.838;2023-10-09T06:18:35;97894.72;;;6.39;68.29
68456;BME280;55437;55.046;38.838;2023-10-09T06:21:01;97897.16;;;6.40;67.70
68456;BME280;55437;55.046;38.838;2023-10-09T06:23:56;97899.81;;;6.39;67.53
68456;BME280;55437;55.046;38.838;2023-10-09T06:26:35;97908.28;;;6.39;67.94
68456;BME280;55437;55.046;38.838;2023-10-09T06:29:01;97918.63;;;6.36;67.71
68456;BME280;55437;55.046;38.838;2023-10-09T06:32:15;97909.31;;;6.35;67.51
68456;BME280;55437;55.046;38.838;2023-10-09T06:34:50;97921.88;;;6.40;67.41
68456;BME280;55437;55.046;38.838;2023-10-09T06:37:23;97920.28;;;6.37;67.29
68456;BME280;55437;55.046;38.838;2023-10-09T06:39:55;97929.97;;;6.48;66.89
68456;BME280;55437;55.046;38.838;2023-10-09T06:42:27;97925.41;;;6.55;66.75
68456;BME280;55437;55.046;38.838;2023-10-09T06:45:03;97942.22;;;6.59;66.84
68456;BME280;55437;55.046;38.838;2023-10-09T06:47:49;97942.44;;;6.54;66.39
68456;BME280;55437;55.046;38.838;2023-10-09T06:51:13;97946.63;;;6.55;66.19
68456;BME280;55437;55.046;38.838;2023-10-09T06:53:55;97955.81;;;6.59;66.40
68456;BME280;55437;55.046;38.838;2023-10-09T06:56:39;97959.69;;;6.49;66.31
68456;BME280;55437;55.046;38.838;2023-10-09T06:59:35;97972.06;;;6.57;66.12
68456;BME280;55437;55.046;38.838;2023-10-09T07:02:21;97976.97;;;6.61;66.45
68456;BME280;55437;55.046;38.838;2023-10-09T07:04:53;97979.34;;;6.64;66.24
68456;BME280;55437;55.046;38.838;2023-10-09T07:07:21;97991.44;;;6.61;66.23
68456;BME280;55437;55.046;38.838;2023-10-09T07:09:50;97981.50;;;6.55;66.49
68456;BME280;55437;55.046;38.838;2023-10-09T07:12:35;98004.66;;;6.69;66.16
68456;BME280;55437;55.046;38.838;2023-10-09T07:15:09;98009.63;;;6.72;66.72
68456;BME280;55437;55.046;38.838;2023-10-09T07:17:35;98007.91;;;6.72;66.37
68456;BME280;55437;55.046;38.838;2023-10-09T07:20:01;98006.03;;;6.76;66.32
68456;BME280;55437;55.046;38.838;2023-10-09T07:22:51;98019.69;;;6.75;65.90
68456;BME280;55437;55.046;38.838;2023-10-09T07:25:22;98011.81;;;6.79;66.01
68456;BME280;55437;55.046;38.838;2023-10-09T07:28:09;98013.00;;;6.72;66.40
68456;BME280;55437;55.046;38.838;2023-10-09T07:30:45;98036.91;;;6.70;66.22
68456;BME280;55437;55.046;38.838;2023-10-09T07:33:22;98036.03;;;6.71;66.39
68456;BME280;55437;55.046;38.838;2023-10-09T07:35:56;98035.38;;;6.66;66.56
68456;BME280;55437;55.046;38.838;2023-10-09T07:38:27;98032.00;;;6.65;66.45
68456;BME280;55437;55.046;38.838;2023-10-09T07:41:02;98041.94;;;6.53;66.95
68456;BME280;55437;55.046;38.838;2023-10-09T07:43:41;98042.91;;;6.50;66.90
68456;BME280;55437;55.046;38.838;2023-10-09T07:49:04;98061.78;;;6.46;66.92
68456;BME280;55437;55.046;38.838;2023-10-09T07:51:40;98062.25;;;6.54;67.10
68456;BME280;55437;55.046;38.838;2023-10-09T07:54:10;98072.19;;;6.60;67.16
68456;BME280;55437;55.046;38.838;2023-10-09T07:56:42;98071.97;;;6.65;67.16
68456;BME280;55437;55.046;38.838;2023-10-09T07:59:12;98086.00;;;6.75;66.78
68456;BME280;55437;55.046;38.838;2023-10-09T08:01:40;98092.53;;;6.80;66.89
68456;BME280;55437;55.046;38.838;2023-10-09T08:04:22;98089.31;;;6.96;66.76
68456;BME280;55437;55.046;38.838;2023-10-09T08:07:10;98090.34;;;6.92;66.33
68456;BME280;55437;55.046;38.838;2023-10-09T08:10:10;98094.28;;;6.99;66.36
68456;BME280;55437;55.046;38.838;2023-10-09T08:12:45;98092.25;;;7.05;65.91
68456;BME280;55437;55.046;38.838;2023-10-09T08:15:15;98102.28;;;7.10;65.94
68456;BME280;55437;55.046;38.838;2023-10-09T08:17:49;98116.88;;;7.06;65.78
68456;BME280;55437;55.046;38.838;2023-10-09T08:20:45;98115.72;;;6.95;65.88
68456;BME280;55437;55.046;38.838;2023-10-09T08:23:24;98117.44;;;6.94;66.17
68456;BME280;55437;55.046;38.838;2023-10-09T08:26:03;98125.19;;;7.11;66.24
68456;BME280;55437;55.046;38.838;2023-10-09T08:28:40;98118.06;;;7.18;65.88
68456;BME280;55437;55.046;38.838;2023-10-09T08:31:12;98119.66;;;7.20;65.42
68456;BME280;55437;55.046;38.838;2023-10-09T08:33:56;98123.69;;;7.24;65.46
68456;BME280;55437;55.046;38.838;2023-10-09T08:36:28;98124.69;;;7.22;65.44
68456;BME280;55437;55.046;38.838;2023-10-09T08:38:55;98129.50;;;7.28;65.18
68456;BME280;55437;55.046;38.838;2023-10-09T08:41:26;98131.72;;;7.36;65.26
68456;BME280;55437;55.046;38.838;2023-10-09T08:43:57;98139.06;;;7.42;64.88
68456;BME280;55437;55.046;38.838;2023-10-09T08:46:25;98138.94;;;7.45;64.75
68456;BME280;55437;55.046;38.838;2023-10-09T08:48:57;98150.81;;;7.46;64.39
68456;BME280;55437;55.046;38.838;2023-10-09T08:51:26;98162.25;;;7.56;64.10
68456;BME280;55437;55.046;38.838;2023-10-09T08:53:53;98164.19;;;7.51;64.14
68456;BME280;55437;55.046;38.838;2023-10-09T08:56:21;98160.88;;;7.49;64.01
68456;BME280;55437;55.046;38.838;2023-10-09T08:58:58;98167.44;;;7.54;64.12
68456;BME280;55437;55.046;38.838;2023-10-09T09:01:25;98179.50;;;7.51;63.64
68456;BME280;55437;55.046;38.838;2023-10-09T09:03:54;98173.72;;;7.47;63.88
68456;BME280;55437;55.046;38.838;2023-10-09T09:06:23;98174.69;;;7.45;63.69
68456;BME280;55437;55.046;38.838;2023-10-09T09:08:50;98176.47;;;7.43;63.60
68456;BME280;55437;55.046;38.838;2023-10-09T09:11:26;98179.94;;;7.42;63.60
68456;BME280;55437;55.046;38.838;2023-10-09T09:14:00;98178.00;;;7.47;64.14
68456;BME280;55437;55.046;38.838;2023-10-09T09:16:41;98187.13;;;7.34;63.90
68456;BME280;55437;55.046;38.838;2023-10-09T09:19:11;98188.72;;;7.36;64.00
68456;BME280;55437;55.046;38.838;2023-10-09T09:21:51;98188.63;;;7.38;63.65
68456;BME280;55437;55.046;38.838;2023-10-09T09:24:22;98193.88;;;7.35;63.81
68456;BME280;55437;55.046;38.838;2023-10-09T09:26:53;98195.53;;;7.36;63.67
68456;BME280;55437;55.046;38.838;2023-10-09T09:29:44;98203.19;;;7.36;63.89
68456;BME280;55437;55.046;38.838;2023-10-09T09:32:28;98199.53;;;7.41;64.08
68456;BME280;55437;55.046;38.838;2023-10-09T09:35:04;98206.75;;;7.50;63.63
68456;BME280;55437;55.046;38.838;2023-10-09T09:37:52;98214.66;;;7.46;63.31
68456;BME280;55437;55.046;38.838;2023-10-09T09:40:19;98201.81;;;7.47;63.64
68456;BME280;55437;55.046;38.838;2023-10-09T09:43:01;98217.75;;;7.52;63.59
68456;BME280;55437;55.046;38.838;2023-10-09T09:45:35;98217.53;;;7.57;63.41
68456;BME280;55437;55.046;38.838;2023-10-09T09:48:05;98212.56;;;7.54;63.56
68456;BME280;55437;55.046;38.838;2023-10-09T09:50:37;98220.59;;;7.46;63.69
68456;BME280;55437;55.046;38.838;2023-10-09T09:53:11;98213.69;;;7.48;63.44
68456;BME280;55437;55.046;38.838;2023-10-09T09:55:49;98219.59;;;7.49;63.35
68456;BME280;55437;55.046;38.838;2023-10-09T09:58:39;98227.56;;;7.43;63.49
68456;BME280;55437;55.046;38.838;2023-10-09T10:01:09;98231.81;;;7.42;63.65
68456;BME280;55437;55.046;38.838;2023-10-09T10:04:17;98235.56;;;7.35;63.69
68456;BME280;55437;55.046;38.838;2023-10-09T10:06:48;98232.19;;;7.35;63.59
68456;BME280;55437;55.046;38.838;2023-10-09T10:09:42;98234.38;;;7.42;63.83
68456;BME280;55437;55.046;38.838;2023-10-09T10:12:50;98243.56;;;7.46;63.53
68456;BME280;55437;55.046;38.838;2023-10-09T10:16:00;98241.44;;;7.56;63.49
68456;BME280;55437;55.046;38.838;2023-10-09T10:18:59;98233.34;;;7.65;62.88
68456;BME280;55437;55.046;38.838;2023-10-09T10:21:50;98245.22;;;7.66;62.80
68456;BME280;55437;55.046;38.838;2023-10-09T10:29:36;98256.53;;;7.79;63.01
68456;BME280;55437;55.046;38.838;2023-10-09T10:32:04;98264.97;;;7.81;63.35
68456;BME280;55437;55.046;38.838;2023-10-09T10:34:54;98256.22;;;7.85;62.98
68456;BME280;55437;55.046;38.838;2023-10-09T10:37:37;98260.38;;;7.88;63.02
68456;BME280;55437;55.046;38.838;2023-10-09T10:40:24;98266.13;;;7.93;63.06
68456;BME280;55437;55.046;38.838;2023-10-09T10:43:16;98270.03;;;8.00;62.94
68456;BME280;55437;55.046;38.838;2023-10-09T10:46:07;98273.09;;;8.08;62.69
68456;BME280;55437;55.046;38.838;2023-10-09T10:48:43;98278.84;;;8.12;62.66
68456;BME280;55437;55.046;38.838;2023-10-09T10:51:15;98276.75;;;8.03;62.65
68456;BME280;55437;55.046;38.838;2023-10-09T10:53:53;98285.03;;;8.08;62.29
68456;BME280;55437;55.046;38.838;2023-10-09T10:56:24;98280.94;;;8.04;62.65
68456;BME280;55437;55.046;38.838;2023-10-09T10:59:01;98286.19;;;8.01;62.37
68456;BME280;55437;55.046;38.838;2023-10-09T11:01:31;98294.16;;;7.94;62.54
68456;BME280;55437;55.046;38.838;2023-10-09T11:04:18;98293.94;;;7.99;62.28
68456;BME280;55437;55.046;38.838;2023-10-09T11:06:51;98296.41;;;8.01;61.91
68456;BME280;55437;55.046;38.838;2023-10-09T11:09:17;98301.63;;;7.80;62.18
68456;BME280;55437;55.046;38.838;2023-10-09T11:11:52;98309.75;;;7.88;62.08
68456;BME280;55437;55.046;38.838;2023-10-09T11:14:46;98307.19;;;7.88;61.93
68456;BME280;55437;55.046;38.838;2023-10-09T11:17:37;98310.25;;;7.97;61.62
68456;BME280;55437;55.046;38.838;2023-10-09T11:20:06;98307.47;;;8.01;61.62
68456;BME280;55437;55.046;38.838;2023-10-09T11:22:52;98310.72;;;8.05;61.48
68456;BME280;55437;55.046;38.838;2023-10-09T11:25:45;98315.53;;;8.11;61.36
68456;BME280;55437;55.046;38.838;2023-10-09T11:28:20;98321.56;;;8.10;61.56
68456;BME280;55437;55.046;38.838;2023-10-09T11:31:09;98314.50;;;8.15;61.75
68456;BME280;55437;55.046;38.838;2023-10-09T11:33:43;98320.84;;;8.25;61.82
68456;BME280;55437;55.046;38.838;2023-10-09T11:36:09;98327.63;;;8.26;61.83
68456;BME280;55437;55.046;38.838;2023-10-09T11:38:38;98332.81;;;8.24;62.24
68456;BME280;55437;55.046;38.838;2023-10-09T11:41:17;98340.72;;;8.20;62.01
68456;BME280;55437;55.046;38.838;2023-10-09T11:43:53;98337.72;;;8.10;62.33
68456;BME280;55437;55.046;38.838;2023-10-09T11:46:24;98344.78;;;8.05;62.49
68456;BME280;55437;55.046;38.838;2023-10-09T11:49:14;98353.16;;;8.09;62.37
68456;BME280;55437;55.046;38.838;2023-10-09T11:51:46;98362.56;;;8.08;62.86
68456;BME280;55437;55.046;38.838;2023-10-09T11:54:33;98356.94;;;8.00;62.98
68456;BME280;55437;55.046;38.838;2023-10-09T11:57:01;98348.91;;;7.89;63.14
68456;BME280;55437;55.046;38.838;2023-10-09T11:59:32;98358.66;;;8.00;63.31
68456;BME280;55437;55.046;38.838;2023-10-09T12:02:08;98359.44;;;8.02;63.47
68456;BME280;55437;55.046;38.838;2023-10-09T12:04:41;98369.78;;;7.99;63.50
68456;BME280;55437;55.046;38.838;2023-10-09T12:07:10;98376.06;;;8.10;63.11
68456;BME280;55437;55.046;38.838;2023-10-09T12:09:37;98375.81;;;8.16;63.27
68456;BME280;55437;55.046;38.838;2023-10-09T12:12:05;98378.56;;;8.12;63.26
68456;BME280;55437;55.046;38.838;2023-10-09T12:14:34;98380.56;;;8.05;62.72
68456;BME280;55437;55.046;38.838;2023-10-09T12:17:06;98393.53;;;8.01;63.02
68456;BME280;55437;55.046;38.838;2023-10-09T12:19:37;98390.38;;;7.95;63.01
68456;BME280;55437;55.046;38.838;2023-10-09T12:22:07;98386.56;;;7.85;63.15
68456;BME280;55437;55.046;38.838;2023-10-09T12:24:36;98402.94;;;7.81;63.25
68456;BME280;55437;55.046;38.838;2023-10-09T12:27:10;98404.91;;;7.75;64.01
68456;BME280;55437;55.046;38.838;2023-10-09T12:29:37;98398.13;;;7.74;64.10
68456;BME280;55437;55.046;38.838;2023-10-09T12:32:10;98409.47;;;7.68;64.39
68456;BME280;55437;55.046;38.838;2023-10-09T12:34:40;98415.09;;;7.56;64.88
68456;BME280;55437;55.046;38.838;2023-10-09T12:37:08;98412.88;;;7.48;65.02
68456;BME280;55437;55.046;38.838;2023-10-09T12:39:34;98416.88;;;7.54;65.31
68456;BME280;55437;55.046;38.838;2023-10-09T12:42:06;98428.00;;;7.53;65.34
68456;BME280;55437;55.046;38.838;2023-10-09T12:44:33;98422.47;;;7.62;65.53
68456;BME280;55437;55.046;38.838;2023-10-09T12:47:06;98422.38;;;7.65;65.52
68456;BME280;55437;55.046;38.838;2023-10-09T12:49:34;98424.16;;;7.63;65.47
68456;BME280;55437;55.046;38.838;2023-10-09T12:52:00;98443.63;;;7.66;65.75
68456;BME280;55437;55.046;38.838;2023-10-09T12:54:26;98442.56;;;7.71;65.80
68456;BME280;55437;55.046;38.838;2023-10-09T12:56:56;98440.56;;;7.78;65.70
68456;BME280;55437;55.046;38.838;2023-10-09T12:59:24;98446.00;;;7.70;65.83
68456;BME280;55437;55.046;38.838;2023-10-09T13:01:50;98458.56;;;7.54;65.87
68456;BME280;55437;55.046;38.838;2023-10-09T13:04:24;98443.75;;;7.42;66.30
68456;BME280;55437;55.046;38.838;2023-10-09T13:06:58;98461.31;;;7.30;66.69
68456;BME280;55437;55.046;38.838;2023-10-09T13:09:29;98463.09;;;7.28;66.48
68456;BME280;55437;55.046;38.838;2023-10-09T13:12:21;98468.97;;;7.30;66.78
68456;BME280;55437;55.046;38.838;2023-10-09T13:14:48;98468.84;;;7.33;66.71
68456;BME280;55437;55.046;38.838;2023-10-09T13:17:15;98465.91;;;7.21;67.00
68456;BME280;55437;55.046;38.838;2023-10-09T13:19:59;98460.13;;;7.16;67.01
68456;BME280;55437;55.046;38.838;2023-10-09T13:22:25;98466.06;;;7.17;66.47
68456;BME280;55437;55.046;38.838;2023-10-09T13:24:51;98470.47;;;7.13;66.56
68456;BME280;55437;55.046;38.838;2023-10-09T13:27:30;98480.44;;;7.19;66.40
68456;BME280;55437;55.046;38.838;2023-10-09T13:30:00;98485.94;;;7.31;66.35
68456;BME280;55437;55.046;38.838;2023-10-09T13:33:15;98489.38;;;7.30;65.74
68456;BME280;55437;55.046;38.838;2023-10-09T13:35:47;98498.94;;;7.24;66.15
68456;BME280;55437;55.046;38.838;2023-10-09T13:38:34;98498.19;;;7.22;66.03
68456;BME280;55437;55.046;38.838;2023-10-09T13:41:01;98500.03;;;7.19;65.78
68456;BME280;55437;55.046;38.838;2023-10-09T13:43:32;98495.00;;;7.17;65.83
68456;BME280;55437;55.046;38.838;2023-10-09T13:46:00;98509.31;;;7.21;66.05
68456;BME280;55437;55.046;38.838;2023-10-09T13:48:29;98504.97;;;7.23;66.24
68456;BME280;55437;55.046;38.838;2023-10-09T13:51:03;98517.72;;;7.23;66.16
68456;BME280;55437;55.046;38.838;2023-10-09T13:53:34;98523.00;;;7.19;66.72
68456;BME280;55437;55.046;38.838;2023-10-09T13:56:02;98535.06;;;7.15;66.56
68456;BME280;55437;55.046;38.838;2023-10-09T13:58:51;98542.97;;;7.09;67.15
68456;BME280;55437;55.046;38.838;2023-10-09T14:01:18;98546.56;;;7.04;67.26
68456;BME280;55437;55.046;38.838;2023-10-09T14:04:14;98548.53;;;6.97;67.09
68456;BME280;55437;55.046;38.838;2023-10-09T14:06:44;98554.00;;;6.88;67.83